Weather reports worldwide

Advertisment
Feldberg/Schwarzwald, Germany (10908): temperature & dewpoint: 23.10.2020 11:00:00 - 29.10.2020 11:00:00 (CET)Feldberg/Schwarzwald, Germany (10908): temperature 5cm & temperature -5cm: 23.10.2020 11:00:00 - 29.10.2020 11:00:00 (CET)Feldberg/Schwarzwald, Germany (10908): temperature -20cm & temperature -100cm: 23.10.2020 11:00:00 - 29.10.2020 11:00:00 (CET)Feldberg/Schwarzwald, Germany (10908): wind speed & gusts: 23.10.2020 11:00:00 - 29.10.2020 11:00:00 (CET)Feldberg/Schwarzwald, Germany (10908): wind direction: 23.10.2020 11:00:00 - 29.10.2020 11:00:00 (CET)Feldberg/Schwarzwald, Germany (10908): visibility: 23.10.2020 11:00:00 - 29.10.2020 11:00:00 (CET)Feldberg/Schwarzwald, Germany (10908): sunshine duration: 23.10.2020 11:00:00 - 29.10.2020 11:00:00 (CET)Feldberg/Schwarzwald, Germany (10908): precipitation: 23.10.2020 11:00:00 - 29.10.2020 11:00:00 (CET)
Date & Time tt [°C] td [°C] tt 5cm [°C] tt -5cm [°C] tt -20cm [°C] tt -100cm [°C] ff [km/h] ff [kn] fx [km/h] fx [kn] dd vv [km] sd [min] rr [mm]
29.10.2020 11:00:00 3,1 3,1 3,7 3,4 3,7 6,5 39 21 69 37 WSW 0,1 0 0,7
29.10.2020 10:00:00 2,9 2,9 3,2 3,2 3,8 6,5 48 26 74 40 W 0,1 0 0,9
29.10.2020 09:00:00 2,7 2,7 2,9 3,0 3,8 6,5 44 24 79 43 W 0,1 0 0,1
29.10.2020 08:00:00 2,3 2,2 2,5 3,0 3,8 6,5 59 32 96 52 WSW 0,1 0 1,5
29.10.2020 07:00:00 2,9 2,9 2,9 3,1 3,9 6,5 52 28 86 46 WSW 0,1 0 3,4
29.10.2020 06:00:00 2,7 2,7 2,7 3,2 3,9 6,5 49 26 101 55 WSW 0,1 0 1,4
29.10.2020 05:00:00 2,7 2,6 2,9 3,4 3,9 6,5 66 36 91 49 WSW 0,3 0 1,4
29.10.2020 04:00:00 3,0 3,0 3,2 3,5 3,9 6,5 60 32 88 47 WSW 0,1 0 0,0
29.10.2020 03:00:00 3,0 3,0 3,2 3,6 3,9 6,5 58 31 91 49 WSW 0,1 0 0,1
29.10.2020 02:00:00 3,1 3,0 3,3 3,6 3,9 6,5 73 39 101 55 WSW 1,8 0 0,2
29.10.2020 01:00:00 3,1 3,0 3,3 3,7 3,9 6,6 69 38 95 52 WSW 4,2 0 0,1
29.10.2020 00:00:00 3,6 3,3 3,7 3,6 3,9 6,6 65 35 96 52 WSW 1,1 0 0,1
28.10.2020 23:00:00 3,4 3,3 3,5 3,6 3,9 6,6 50 27 94 51 WSW 1,6 0 0,0
28.10.2020 22:00:00 3,0 2,7 3,1 3,7 3,9 6,6 59 32 91 49 WSW 27 0 0,0
28.10.2020 21:00:00 3,5 3,5 3,7 3,9 3,8 6,6 63 34 88 48 WSW 0,3 0 0,5
28.10.2020 20:00:00 3,9 3,8 4,0 3,8 3,8 6,6 62 33 83 45 SW 0,6 0 0,0
28.10.2020 19:00:00 3,6 3,6 3,7 3,8 3,8 6,6 54 29 82 45 WSW 0,7 0 0,1
28.10.2020 18:00:00 3,5 3,4 3,7 3,8 3,8 6,6 42 23 66 36 WSW 0,1 0 0,1
28.10.2020 17:00:00 3,4 3,0 3,4 3,9 3,7 6,6 41 22 71 38 WSW 36 0 0,0
28.10.2020 16:00:00 3,3 2,8 3,6 4,2 3,6 6,6 49 27 70 38 SW 26 0 0,0
28.10.2020 15:00:00 3,3 3,0 4,0 4,3 3,5 6,6 48 26 77 42 SW 19 3 0,0
28.10.2020 14:00:00 2,7 2,4 3,2 4,2 3,5 6,6 57 31 82 44 WSW 32 1 0,0
28.10.2020 13:00:00 2,6 2,6 3,6 4,0 3,4 6,7 53 29 77 42 WSW 4,8 0 0,1
28.10.2020 12:00:00 2,9 2,7 3,5 4,1 3,3 6,7 60 32 87 47 SW 0,3 0 0,1
28.10.2020 11:00:00 3,5 3,4 4,0 4,0 3,1 6,7 52 28 82 45 WSW 0,1 0 0,1
28.10.2020 10:00:00 3,7 3,7 4,1 4,0 3,0 6,7 56 30 81 44 WSW 0,1 0 0,0
28.10.2020 09:00:00 4,3 4,3 4,7 3,7 2,9 6,7 50 27 77 42 WSW 0,1 0 1,0
28.10.2020 08:00:00 4,4 4,4 4,6 3,4 2,8 6,7 46 25 68 37 WSW 0,1 0 0,8
28.10.2020 07:00:00 4,3 4,3 4,3 3,1 2,8 6,7 48 26 74 40 WSW 0,1 0 0,5
28.10.2020 06:00:00 4,2 4,2 4,0 2,7 2,7 6,7 52 28 67 36 SW 0,1 0 1,8
28.10.2020 05:00:00 3,5 3,4 3,4 2,4 2,7 6,7 45 25 55 30 SW 0,2 0 2,0
28.10.2020 04:00:00 3,7 3,7 3,2 1,9 2,7 6,7 46 25 65 35 SW 0,2 0 0,1
28.10.2020 03:00:00 2,6 2,5 2,0 1,6 2,7 6,7 52 28 67 36 SW 0,1 0 0,0
28.10.2020 02:00:00 2,5 2,4 1,6 1,3 2,7 6,7 55 30 71 39 SSW 0,1 0 0,7
28.10.2020 01:00:00 1,9 1,7 1,3 0,9 2,7 6,7 52 28 63 34 SW 0,1 0 0,0
28.10.2020 00:00:00 0,6 -0,1 0,7 0,7 2,8 6,7 54 29 70 38 SSW 3,7 0 0,0
27.10.2020 23:00:00 0,5 -1,6 0,8 0,7 2,8 6,7 56 30 64 34 SSW 74 0 0,0
27.10.2020 22:00:00 0,1 -1,1 0,3 0,8 2,8 6,7 54 29 66 36 SSW 75 0 0,0
27.10.2020 21:00:00 -0,1 -0,9 -0,3 0,8 2,9 6,8 58 31 69 37 SSW 75 0 0,0
27.10.2020 20:00:00 -0,1 -0,5 -0,3 0,9 2,9 6,8 57 31 68 37 SSW 67 0 0,0
27.10.2020 19:00:00 0,0 -0,1 0,1 1,1 2,9 6,8 50 27 58 31 SSW 0,1 0 0,0
27.10.2020 18:00:00 -0,1 -0,2 0,1 1,3 2,9 6,8 46 25 58 31 SSW 0,1 0 0,0
27.10.2020 17:00:00 -0,1 -0,2 0,2 1,4 2,9 6,8 42 23 61 33 SSW 0,1 0 0,0
27.10.2020 16:00:00 -0,1 -0,2 0,3 1,6 2,9 6,8 48 26 59 32 SW 0,1 0 0,0
27.10.2020 15:00:00 -0,1 -0,2 0,3 1,5 2,9 6,8 47 26 63 34 SW 0,1 0 0,0
27.10.2020 14:00:00 -0,1 -0,2 0,2 1,2 2,9 6,8 42 23 55 30 SSW 0,1 0 0,1
27.10.2020 13:00:00 -0,2 -0,3 0,1 1,1 3,0 6,8 34 18 55 30 SW 0,1 0 0,0
27.10.2020 12:00:00 -0,3 -0,4 0,1 1,1 3,0 6,8 40 21 53 29 SSW 0,1 0 0,0
27.10.2020 11:00:00 -0,4 -0,5 0,1 1,1 3,0 6,8 34 19 53 29 SW 0,1 0 0,0
27.10.2020 10:00:00 -0,7 -0,9 0,0 1,1 3,1 6,8 37 20 61 33 SW 0,1 0 0,0
27.10.2020 09:00:00 -0,5 -0,6 -0,1 1,0 3,1 6,8 31 17 54 29 SW 0,1 0 0,0
27.10.2020 08:00:00 -0,6 -0,8 -0,3 1,0 3,1 6,8 35 19 53 28 SW 0,1 0 0,0
27.10.2020 07:00:00 -0,7 -0,9 -0,4 1,0 3,2 6,8 29 16 42 23 SW 0,1 0 0,1
27.10.2020 06:00:00 -0,4 -0,6 -0,1 1,0 3,2 6,8 30 16 42 23 WSW 0,1 0 0,0
27.10.2020 05:00:00 -0,4 -0,5 -0,1 1,0 3,3 6,8 34 19 48 26 WSW 0,1 0 0,0
27.10.2020 04:00:00 -0,3 -0,5 0,0 1,0 3,3 6,8 39 21 49 27 WSW 0,1 0 0,0
27.10.2020 03:00:00 -0,2 -0,4 0,0 1,0 3,4 6,8 37 20 48 26 SW 0,1 0 0,0
27.10.2020 02:00:00 -0,2 -0,3 0,0 1,1 3,4 6,8 30 16 42 23 SW 0,1 0 0,0
27.10.2020 01:00:00 -0,2 -0,3 0,0 1,1 3,5 6,8 26 14 44 24 WSW 0,1 0 0,0
27.10.2020 00:00:00 -0,2 -0,3 0,0 1,1 3,5 6,8 29 16 44 24 SW - 0 0,0
26.10.2020 23:00:00 -0,2 -0,3 0,0 1,1 3,6 6,8 32 18 51 28 SW 0,1 0 0,0
26.10.2020 22:00:00 -0,2 -0,3 0,0 1,1 3,7 6,8 38 20 48 26 SW 0,1 0 0,0
26.10.2020 21:00:00 -0,1 -0,2 0,0 1,2 3,7 6,8 28 15 39 21 SW 0,1 0 0,0
26.10.2020 20:00:00 -0,2 -0,3 0,0 1,2 3,8 6,8 32 17 42 23 SW 0,1 0 0,0
26.10.2020 19:00:00 -0,2 -0,2 0,0 1,2 3,9 6,8 26 14 40 21 SW 0,1 0 0,0
26.10.2020 18:00:00 -0,5 -0,6 0,0 1,2 4,0 6,8 21 11 42 23 SSW 0,4 0 0,0
26.10.2020 17:00:00 -0,3 -0,4 0,0 1,2 4,1 6,8 33 18 42 23 SW 0,1 0 0,0
26.10.2020 16:00:00 -0,2 -0,3 0,1 1,3 4,2 6,8 24 13 34 19 SW 0,1 0 0,0
26.10.2020 15:00:00 -0,3 -0,3 0,1 1,3 4,3 6,8 24 13 39 21 WSW 0,1 0 0,0
26.10.2020 14:00:00 -0,6 -0,6 -0,1 1,4 4,5 6,8 32 17 42 23 SW 0,2 0 0,3
26.10.2020 13:00:00 -0,8 -0,8 -0,2 1,5 4,6 6,8 30 16 43 23 SW 0,2 0 0,3
26.10.2020 12:00:00 -0,6 -0,7 -0,2 1,6 4,8 6,8 33 18 41 22 SSW 0,2 0 0,1
26.10.2020 11:00:00 -0,5 -0,6 -0,1 1,7 4,9 6,8 29 16 40 21 SW 0,1 0 0,1
26.10.2020 10:00:00 -0,6 -0,7 -0,2 1,8 5,1 6,8 26 14 36 19 SSW 0,2 0 0,1
26.10.2020 09:00:00 -0,3 -0,3 -0,1 2,0 5,3 6,8 21 12 29 16 W 0,3 0 0,9
26.10.2020 08:00:00 -0,1 -0,1 0,0 2,2 5,4 6,8 22 12 44 24 WNW 0,2 0 1,0
26.10.2020 07:00:00 0,3 0,2 0,2 2,8 5,5 6,8 31 17 45 25 W 0,1 0 1,0
26.10.2020 06:00:00 0,9 0,9 0,7 3,7 5,6 6,8 29 15 45 24 WNW 0,1 0 1,4
26.10.2020 05:00:00 2,1 2,1 2,4 4,2 5,7 6,8 27 15 42 23 WNW 0,1 0 0,6
26.10.2020 04:00:00 2,9 2,9 3,2 4,5 5,7 6,7 24 13 47 26 W 0,1 0 0,4
26.10.2020 03:00:00 3,3 3,3 3,6 4,8 5,8 6,7 36 19 50 27 WSW 0,1 0 0,5
26.10.2020 02:00:00 4,1 4,1 4,2 4,8 5,8 6,7 25 14 37 20 WSW 0,1 0 0,1
26.10.2020 01:00:00 4,5 4,5 4,7 4,7 5,9 6,7 23 13 39 21 SW 0,1 0 0,0
26.10.2020 00:00:00 5,5 4,0 4,3 4,8 5,9 6,7 29 16 42 23 SSW 52 0 0,0
25.10.2020 23:00:00 6,0 3,4 5,0 5,1 6,0 6,7 29 16 36 19 SW 65 0 0,0
25.10.2020 22:00:00 6,4 3,0 5,3 5,3 6,0 6,7 29 15 50 27 SSW 55 0 0,0
25.10.2020 21:00:00 7,1 3,1 6,6 5,4 6,1 6,7 30 16 41 22 SSW 62 0 0,0
25.10.2020 20:00:00 6,9 3,2 6,2 5,5 6,1 6,7 30 16 56 31 SW 61 0 0,0
25.10.2020 19:00:00 7,1 2,9 6,4 5,6 6,1 6,7 41 22 52 28 SW 57 0 0,0
25.10.2020 18:00:00 6,2 3,5 4,7 5,9 6,1 6,7 24 13 31 17 SSW 55 0 0,0
25.10.2020 17:00:00 6,6 3,0 5,0 6,9 5,9 6,7 18 10 33 18 SSW 57 2 0,0
25.10.2020 16:00:00 7,3 2,8 8,0 7,7 5,8 6,7 21 11 39 21 SSW 50 26 0,0
25.10.2020 15:00:00 8,0 2,2 9,9 7,9 5,6 6,7 28 15 48 26 SW 66 49 0,0
25.10.2020 14:00:00 7,5 1,6 9,2 8,0 5,4 6,7 40 21 65 35 WSW 46 60 0,0
25.10.2020 13:00:00 8,2 1,3 10,2 7,4 5,3 6,7 43 23 76 41 WSW 61 60 0,0
25.10.2020 12:00:00 7,2 1,7 9,2 6,4 5,2 6,7 49 26 69 37 SW 72 60 0,0
25.10.2020 11:00:00 6,6 1,5 8,2 5,4 5,2 6,7 39 21 57 31 SSW 51 60 0,0
25.10.2020 10:00:00 6,2 0,7 6,9 4,2 5,3 6,7 45 24 59 32 SSW 75 59 0,0
25.10.2020 09:00:00 5,3 1,0 4,6 3,5 5,4 6,7 50 27 61 33 SW 53 16 0,0
25.10.2020 08:00:00 5,5 0,3 3,6 3,2 5,5 6,7 52 28 58 32 SSW 75 0 0,0
25.10.2020 07:00:00 4,6 1,5 3,0 3,3 5,6 6,7 49 27 60 33 SSW 75 0 0,0
25.10.2020 06:00:00 4,7 2,2 3,1 3,3 5,7 6,7 49 27 60 32 SSW 66 0 0,0
25.10.2020 05:00:00 4,4 2,9 2,9 3,4 5,8 6,7 44 24 52 28 SSW 63 0 0,0
25.10.2020 04:00:00 4,7 2,7 2,8 3,6 6,0 6,7 39 21 46 25 SSW 65 0 0,0
25.10.2020 03:00:00 4,5 2,6 2,8 4,0 6,0 6,7 37 20 42 23 SSW 66 0 0,0
25.10.2020 02:00:00 4,2 4,0 3,3 4,5 6,1 6,6 38 20 42 23 SSW 13 0 0,0
25.10.2020 01:00:00 - - - - - - - - - - - - - -
25.10.2020 00:00:00 4,5 4,5 4,6 4,8 6,3 6,6 34 18 40 22 SSW - 0 0,0
24.10.2020 23:00:00 4,2 4,2 3,9 4,8 6,4 6,6 34 18 40 21 SSW 0,1 0 0,0
24.10.2020 22:00:00 4,2 4,2 3,7 5,2 6,4 6,6 37 20 40 22 SSW 0,1 0 0,0
24.10.2020 21:00:00 3,9 3,9 4,0 5,4 6,5 6,6 30 16 43 23 S 0,1 0 0,0
24.10.2020 20:00:00 4,2 4,2 4,3 5,6 6,6 6,6 39 21 44 24 SSW 0,1 0 0,0
24.10.2020 19:00:00 4,3 4,3 4,5 6,0 6,6 6,6 35 19 44 24 SSW 0,1 0 0,0
24.10.2020 18:00:00 4,4 4,4 4,7 6,4 6,5 6,6 36 19 42 23 S 0,1 0 0,0
24.10.2020 17:00:00 4,6 4,6 5,0 7,0 6,5 6,6 29 16 41 22 SSW 0,1 4 0,0
24.10.2020 16:00:00 4,8 4,7 5,7 7,4 6,4 6,6 27 15 39 21 SSW 34 5 0,0
24.10.2020 15:00:00 4,6 4,1 5,8 7,7 6,3 6,6 33 18 53 28 SSW 47 27 0,0
24.10.2020 14:00:00 4,4 3,9 5,8 7,2 6,3 6,6 34 19 57 31 SSW 39 20 0,0
24.10.2020 13:00:00 4,1 4,1 5,7 6,5 6,3 6,6 44 24 58 31 SW 0,2 5 0,0
24.10.2020 12:00:00 4,2 4,2 5,1 6,1 6,3 6,6 37 20 58 31 SSW 0,1 1 0,0
24.10.2020 11:00:00 4,1 4,1 4,9 5,9 6,3 6,6 33 18 50 27 SW 0,1 0 0,0
24.10.2020 10:00:00 3,8 3,8 4,9 5,6 6,4 6,6 38 21 56 30 SW 0,2 0 0,0
24.10.2020 09:00:00 3,9 3,8 4,6 5,4 6,5 6,6 37 20 55 30 WSW 0,5 4 0,0
24.10.2020 08:00:00 3,8 3,8 4,2 5,4 6,5 6,6 37 20 52 28 WSW 0,3 0 0,0
24.10.2020 07:00:00 4,0 4,0 4,3 5,6 6,6 6,5 36 19 49 27 WSW 0,1 0 0,0
24.10.2020 06:00:00 4,5 4,5 4,7 5,8 6,6 6,5 28 15 43 23 WSW 0,1 0 0,1
24.10.2020 05:00:00 4,8 4,8 5,0 6,0 6,7 6,5 35 19 45 24 W 0,1 0 0,0
24.10.2020 04:00:00 5,0 5,0 5,2 6,1 6,8 6,5 29 15 46 25 W 0,1 0 0,7
24.10.2020 03:00:00 5,3 5,3 5,5 6,2 6,8 6,5 27 15 43 23 WNW 0,1 0 0,3
24.10.2020 02:00:00 5,4 5,4 5,6 6,3 6,8 6,5 26 14 46 25 W 0,1 0 0,2
24.10.2020 01:00:00 5,4 5,4 5,6 6,5 6,9 6,5 33 18 50 27 WSW 0,1 0 0,3
24.10.2020 00:00:00 5,6 5,6 5,9 6,7 6,9 6,5 33 18 50 27 SW 0,1 0 2,7
23.10.2020 23:00:00 6,1 6,1 6,3 6,8 7,0 6,5 32 17 46 25 SW 0,1 0 2,3
23.10.2020 22:00:00 6,3 6,3 6,5 6,9 7,0 6,5 28 15 53 29 SW 0,1 0 0,7
23.10.2020 21:00:00 6,5 6,5 6,7 7,0 7,0 6,5 35 19 51 28 SW 0,1 0 3,7
23.10.2020 20:00:00 6,6 6,6 6,8 7,1 7,0 6,5 26 14 50 27 WSW 0,1 0 0,5
23.10.2020 19:00:00 6,6 6,6 6,8 7,2 7,1 6,5 33 18 55 30 SW 0,1 0 0,0
23.10.2020 18:00:00 6,6 6,5 6,8 7,4 7,0 6,5 35 19 58 32 SW 0,1 0 0,4
23.10.2020 17:00:00 6,8 6,8 7,1 7,6 7,0 6,5 30 16 48 26 WSW 0,1 0 0,4
23.10.2020 16:00:00 7,1 7,1 7,4 7,7 7,0 6,5 29 16 45 25 WSW 0,2 0 3,1
23.10.2020 15:00:00 7,3 7,3 7,6 7,8 6,9 6,5 31 17 50 27 SW 0,1 0 3,0
23.10.2020 14:00:00 7,0 7,0 7,4 7,8 6,9 6,5 37 20 47 26 SSW 0,1 0 3,2
23.10.2020 13:00:00 7,0 7,0 7,5 8,1 6,8 6,5 36 19 44 24 SSW 0,1 0 0,5
23.10.2020 12:00:00 7,3 7,3 7,9 7,7 6,8 6,5 25 13 49 26 S 0,1 0 2,4
23.10.2020 11:00:00 7,3 7,3 7,6 7,6 6,8 6,5 32 17 41 22 S 0,1 0 0,4

tt = temperature
td = dewpoint
tt 5cm = temperature 5cm
tt -5cm = temperature -5cm
tt -20cm = temperature -20cm
tt -100cm = temperature -100cm
ff = wind speed
fx = gusts
dd = wind direction
vv = visibility
sd = sunshine duration
rr = precipitation

Next stations